sensor_id;sensor_type;location;lat;lon;timestamp;P1;durP1;ratioP1;P2;durP2;ratioP2
3527;SDS011;1778;47.966;7.854;2023-11-19T00:00:48;2.80;;;2.70;;
3527;SDS011;1778;47.966;7.854;2023-11-19T00:01:53;2.10;;;2.10;;
3527;SDS011;1778;47.966;7.854;2023-11-19T00:02:55;2.57;;;2.47;;
3527;SDS011;1778;47.966;7.854;2023-11-19T00:03:57;2.23;;;2.13;;
3527;SDS011;1778;47.966;7.854;2023-11-19T00:04:59;2.97;;;2.87;;
3527;SDS011;1778;47.966;7.854;2023-11-19T00:06:00;3.03;;;2.90;;
3527;SDS011;1778;47.966;7.854;2023-11-19T00:07:02;2.87;;;2.77;;
3527;SDS011;1778;47.966;7.854;2023-11-19T00:08:05;2.30;;;2.30;;
3527;SDS011;1778;47.966;7.854;2023-11-19T00:09:07;2.63;;;2.53;;
3527;SDS011;1778;47.966;7.854;2023-11-19T00:10:09;3.50;;;3.17;;
3527;SDS011;1778;47.966;7.854;2023-11-19T00:11:15;2.13;;;2.13;;
3527;SDS011;1778;47.966;7.854;2023-11-19T00:12:17;2.03;;;2.03;;
3527;SDS011;1778;47.966;7.854;2023-11-19T00:13:19;2.10;;;2.10;;
3527;SDS011;1778;47.966;7.854;2023-11-19T00:14:21;2.33;;;2.33;;
3527;SDS011;1778;47.966;7.854;2023-11-19T00:15:23;3.17;;;2.87;;
3527;SDS011;1778;47.966;7.854;2023-11-19T00:16:25;2.70;;;2.70;;
3527;SDS011;1778;47.966;7.854;2023-11-19T00:17:26;2.00;;;2.00;;
3527;SDS011;1778;47.966;7.854;2023-11-19T00:18:28;2.70;;;2.60;;
3527;SDS011;1778;47.966;7.854;2023-11-19T00:19:29;2.50;;;2.50;;
3527;SDS011;1778;47.966;7.854;2023-11-19T00:20:31;2.47;;;2.37;;
3527;SDS011;1778;47.966;7.854;2023-11-19T00:21:32;2.10;;;2.10;;
3527;SDS011;1778;47.966;7.854;2023-11-19T00:22:34;2.07;;;2.07;;
3527;SDS011;1778;47.966;7.854;2023-11-19T00:23:36;2.23;;;2.13;;
3527;SDS011;1778;47.966;7.854;2023-11-19T00:24:38;2.30;;;2.20;;
3527;SDS011;1778;47.966;7.854;2023-11-19T00:25:40;2.80;;;2.70;;
3527;SDS011;1778;47.966;7.854;2023-11-19T00:26:41;2.23;;;2.23;;
3527;SDS011;1778;47.966;7.854;2023-11-19T00:27:43;2.67;;;2.50;;
3527;SDS011;1778;47.966;7.854;2023-11-19T00:28:47;2.40;;;2.40;;
3527;SDS011;1778;47.966;7.854;2023-11-19T00:29:49;2.53;;;2.37;;
3527;SDS011;1778;47.966;7.854;2023-11-19T00:30:50;2.43;;;2.33;;
3527;SDS011;1778;47.966;7.854;2023-11-19T00:31:52;2.40;;;2.40;;
3527;SDS011;1778;47.966;7.854;2023-11-19T00:32:54;2.60;;;2.30;;
3527;SDS011;1778;47.966;7.854;2023-11-19T00:33:55;2.57;;;2.57;;
3527;SDS011;1778;47.966;7.854;2023-11-19T00:34:57;2.17;;;2.07;;
3527;SDS011;1778;47.966;7.854;2023-11-19T00:35:58;2.40;;;2.40;;
3527;SDS011;1778;47.966;7.854;2023-11-19T00:37:00;2.60;;;2.50;;
3527;SDS011;1778;47.966;7.854;2023-11-19T00:38:01;2.40;;;2.40;;
3527;SDS011;1778;47.966;7.854;2023-11-19T00:39:04;2.30;;;2.20;;
3527;SDS011;1778;47.966;7.854;2023-11-19T00:40:07;2.30;;;2.20;;
3527;SDS011;1778;47.966;7.854;2023-11-19T00:41:11;3.23;;;2.33;;
3527;SDS011;1778;47.966;7.854;2023-11-19T00:42:12;2.17;;;2.17;;
3527;SDS011;1778;47.966;7.854;2023-11-19T00:43:15;3.20;;;3.00;;
3527;SDS011;1778;47.966;7.854;2023-11-19T00:44:16;2.53;;;2.43;;
3527;SDS011;1778;47.966;7.854;2023-11-19T00:45:17;2.40;;;2.20;;
3527;SDS011;1778;47.966;7.854;2023-11-19T00:46:19;2.17;;;2.17;;
3527;SDS011;1778;47.966;7.854;2023-11-19T00:47:21;2.13;;;2.13;;
3527;SDS011;1778;47.966;7.854;2023-11-19T00:48:22;3.50;;;2.87;;
3527;SDS011;1778;47.966;7.854;2023-11-19T00:49:24;2.20;;;2.20;;
3527;SDS011;1778;47.966;7.854;2023-11-19T00:50:25;3.37;;;3.20;;
3527;SDS011;1778;47.966;7.854;2023-11-19T00:51:27;2.50;;;2.40;;
3527;SDS011;1778;47.966;7.854;2023-11-19T00:52:28;2.63;;;2.53;;
3527;SDS011;1778;47.966;7.854;2023-11-19T00:53:31;2.60;;;2.50;;
3527;SDS011;1778;47.966;7.854;2023-11-19T00:54:35;2.60;;;2.60;;
3527;SDS011;1778;47.966;7.854;2023-11-19T00:55:37;2.23;;;2.13;;
3527;SDS011;1778;47.966;7.854;2023-11-19T00:56:47;3.20;;;3.00;;
3527;SDS011;1778;47.966;7.854;2023-11-19T00:57:48;2.30;;;2.20;;
3527;SDS011;1778;47.966;7.854;2023-11-19T00:58:50;2.77;;;2.57;;
3527;SDS011;1778;47.966;7.854;2023-11-19T00:59:52;2.00;;;2.00;;
3527;SDS011;1778;47.966;7.854;2023-11-19T01:00:53;1.90;;;1.80;;
3527;SDS011;1778;47.966;7.854;2023-11-19T01:01:55;2.20;;;2.10;;
3527;SDS011;1778;47.966;7.854;2023-11-19T01:02:57;2.10;;;2.10;;
3527;SDS011;1778;47.966;7.854;2023-11-19T01:03:59;2.23;;;2.00;;
3527;SDS011;1778;47.966;7.854;2023-11-19T01:05:01;2.03;;;2.03;;
3527;SDS011;1778;47.966;7.854;2023-11-19T01:06:03;2.23;;;2.20;;
3527;SDS011;1778;47.966;7.854;2023-11-19T01:07:05;2.30;;;2.20;;
3527;SDS011;1778;47.966;7.854;2023-11-19T01:08:13;2.00;;;2.00;;
3527;SDS011;1778;47.966;7.854;2023-11-19T01:09:17;2.30;;;2.30;;
3527;SDS011;1778;47.966;7.854;2023-11-19T01:10:18;5.20;;;2.20;;
3527;SDS011;1778;47.966;7.854;2023-11-19T01:11:23;2.30;;;2.20;;
3527;SDS011;1778;47.966;7.854;2023-11-19T01:12:25;1.83;;;1.83;;
3527;SDS011;1778;47.966;7.854;2023-11-19T01:13:27;2.37;;;2.27;;
3527;SDS011;1778;47.966;7.854;2023-11-19T01:14:29;2.50;;;2.40;;
3527;SDS011;1778;47.966;7.854;2023-11-19T01:15:33;2.60;;;2.10;;
3527;SDS011;1778;47.966;7.854;2023-11-19T01:16:35;2.13;;;2.10;;
3527;SDS011;1778;47.966;7.854;2023-11-19T01:17:37;2.60;;;2.20;;
3527;SDS011;1778;47.966;7.854;2023-11-19T01:18:39;2.47;;;2.47;;
3527;SDS011;1778;47.966;7.854;2023-11-19T01:19:40;2.20;;;2.20;;
3527;SDS011;1778;47.966;7.854;2023-11-19T01:20:41;2.10;;;2.10;;
3527;SDS011;1778;47.966;7.854;2023-11-19T01:21:43;2.30;;;2.20;;
3527;SDS011;1778;47.966;7.854;2023-11-19T01:22:44;2.53;;;2.43;;
3527;SDS011;1778;47.966;7.854;2023-11-19T01:23:46;1.97;;;1.97;;
3527;SDS011;1778;47.966;7.854;2023-11-19T01:24:47;2.30;;;2.17;;
3527;SDS011;1778;47.966;7.854;2023-11-19T01:25:49;3.70;;;2.10;;
3527;SDS011;1778;47.966;7.854;2023-11-19T01:26:50;1.90;;;1.90;;
3527;SDS011;1778;47.966;7.854;2023-11-19T01:27:52;2.13;;;2.07;;
3527;SDS011;1778;47.966;7.854;2023-11-19T01:28:53;1.90;;;1.90;;
3527;SDS011;1778;47.966;7.854;2023-11-19T01:29:55;1.80;;;1.80;;
3527;SDS011;1778;47.966;7.854;2023-11-19T01:30:56;2.10;;;2.10;;
3527;SDS011;1778;47.966;7.854;2023-11-19T01:31:58;2.07;;;2.07;;
3527;SDS011;1778;47.966;7.854;2023-11-19T01:33:00;1.90;;;1.90;;
3527;SDS011;1778;47.966;7.854;2023-11-19T01:34:01;1.90;;;1.90;;
3527;SDS011;1778;47.966;7.854;2023-11-19T01:35:03;2.10;;;2.10;;
3527;SDS011;1778;47.966;7.854;2023-11-19T01:36:05;11.10;;;2.30;;
3527;SDS011;1778;47.966;7.854;2023-11-19T01:37:09;2.40;;;2.40;;
3527;SDS011;1778;47.966;7.854;2023-11-19T01:38:11;1.97;;;1.97;;
3527;SDS011;1778;47.966;7.854;2023-11-19T01:39:13;2.00;;;2.00;;
3527;SDS011;1778;47.966;7.854;2023-11-19T01:40:20;2.27;;;2.20;;
3527;SDS011;1778;47.966;7.854;2023-11-19T01:41:21;2.10;;;2.10;;
3527;SDS011;1778;47.966;7.854;2023-11-19T01:42:23;1.90;;;1.90;;
3527;SDS011;1778;47.966;7.854;2023-11-19T01:43:37;1.90;;;1.90;;
3527;SDS011;1778;47.966;7.854;2023-11-19T01:44:42;2.03;;;2.03;;
3527;SDS011;1778;47.966;7.854;2023-11-19T01:45:55;1.90;;;1.90;;
3527;SDS011;1778;47.966;7.854;2023-11-19T01:46:56;2.50;;;2.03;;
3527;SDS011;1778;47.966;7.854;2023-11-19T01:47:59;2.00;;;2.00;;
3527;SDS011;1778;47.966;7.854;2023-11-19T01:49:05;2.57;;;2.47;;
3527;SDS011;1778;47.966;7.854;2023-11-19T01:50:07;2.07;;;2.07;;
3527;SDS011;1778;47.966;7.854;2023-11-19T01:51:09;2.40;;;2.40;;
3527;SDS011;1778;47.966;7.854;2023-11-19T01:52:12;2.03;;;2.03;;
3527;SDS011;1778;47.966;7.854;2023-11-19T01:53:13;2.33;;;2.23;;
3527;SDS011;1778;47.966;7.854;2023-11-19T01:54:15;2.07;;;2.07;;
3527;SDS011;1778;47.966;7.854;2023-11-19T01:55:17;2.00;;;2.00;;
3527;SDS011;1778;47.966;7.854;2023-11-19T01:56:19;2.00;;;2.00;;
3527;SDS011;1778;47.966;7.854;2023-11-19T01:57:22;2.30;;;2.30;;
3527;SDS011;1778;47.966;7.854;2023-11-19T01:58:24;2.30;;;2.23;;
3527;SDS011;1778;47.966;7.854;2023-11-19T01:59:25;2.50;;;2.40;;
3527;SDS011;1778;47.966;7.854;2023-11-19T02:00:28;2.20;;;2.20;;
3527;SDS011;1778;47.966;7.854;2023-11-19T02:01:29;2.33;;;2.33;;
3527;SDS011;1778;47.966;7.854;2023-11-19T02:02:33;2.37;;;2.37;;
3527;SDS011;1778;47.966;7.854;2023-11-19T02:03:37;2.33;;;2.33;;
3527;SDS011;1778;47.966;7.854;2023-11-19T02:04:39;3.00;;;2.70;;
3527;SDS011;1778;47.966;7.854;2023-11-19T02:05:41;2.63;;;2.60;;
3527;SDS011;1778;47.966;7.854;2023-11-19T02:06:43;2.67;;;2.67;;
3527;SDS011;1778;47.966;7.854;2023-11-19T02:07:49;2.93;;;2.93;;
3527;SDS011;1778;47.966;7.854;2023-11-19T02:08:52;4.03;;;2.97;;
3527;SDS011;1778;47.966;7.854;2023-11-19T02:09:54;3.43;;;3.23;;
3527;SDS011;1778;47.966;7.854;2023-11-19T02:10:55;3.60;;;3.60;;
3527;SDS011;1778;47.966;7.854;2023-11-19T02:12:00;4.10;;;4.00;;
3527;SDS011;1778;47.966;7.854;2023-11-19T02:13:02;3.37;;;3.30;;
3527;SDS011;1778;47.966;7.854;2023-11-19T02:14:06;3.43;;;3.43;;
3527;SDS011;1778;47.966;7.854;2023-11-19T02:15:09;3.80;;;3.80;;
3527;SDS011;1778;47.966;7.854;2023-11-19T02:16:11;3.30;;;3.30;;
3527;SDS011;1778;47.966;7.854;2023-11-19T02:18:46;5.80;;;4.00;;
3527;SDS011;1778;47.966;7.854;2023-11-19T02:19:49;3.87;;;3.77;;
3527;SDS011;1778;47.966;7.854;2023-11-19T02:20:50;4.03;;;3.63;;
3527;SDS011;1778;47.966;7.854;2023-11-19T02:21:53;3.80;;;3.60;;
3527;SDS011;1778;47.966;7.854;2023-11-19T02:22:54;3.70;;;3.60;;
3527;SDS011;1778;47.966;7.854;2023-11-19T02:23:56;4.30;;;4.20;;
3527;SDS011;1778;47.966;7.854;2023-11-19T02:25:18;3.93;;;3.83;;
3527;SDS011;1778;47.966;7.854;2023-11-19T02:26:34;3.60;;;3.60;;
3527;SDS011;1778;47.966;7.854;2023-11-19T02:28:03;4.37;;;4.27;;
3527;SDS011;1778;47.966;7.854;2023-11-19T02:29:05;3.90;;;3.80;;
3527;SDS011;1778;47.966;7.854;2023-11-19T02:30:09;3.67;;;3.60;;
3527;SDS011;1778;47.966;7.854;2023-11-19T02:31:11;3.80;;;3.70;;
3527;SDS011;1778;47.966;7.854;2023-11-19T02:32:13;4.20;;;4.10;;
3527;SDS011;1778;47.966;7.854;2023-11-19T02:33:17;3.90;;;3.80;;
3527;SDS011;1778;47.966;7.854;2023-11-19T02:34:18;4.60;;;4.40;;
3527;SDS011;1778;47.966;7.854;2023-11-19T02:35:21;3.77;;;3.77;;
3527;SDS011;1778;47.966;7.854;2023-11-19T02:36:23;4.00;;;3.90;;
3527;SDS011;1778;47.966;7.854;2023-11-19T02:37:25;4.43;;;4.33;;
3527;SDS011;1778;47.966;7.854;2023-11-19T02:38:26;5.10;;;4.80;;
3527;SDS011;1778;47.966;7.854;2023-11-19T02:39:28;4.00;;;3.90;;
3527;SDS011;1778;47.966;7.854;2023-11-19T02:40:29;5.20;;;4.83;;
3527;SDS011;1778;47.966;7.854;2023-11-19T02:41:31;4.40;;;4.30;;
3527;SDS011;1778;47.966;7.854;2023-11-19T02:42:32;5.27;;;5.00;;
3527;SDS011;1778;47.966;7.854;2023-11-19T02:43:34;4.63;;;4.43;;
3527;SDS011;1778;47.966;7.854;2023-11-19T02:44:36;4.63;;;4.43;;
3527;SDS011;1778;47.966;7.854;2023-11-19T02:45:37;4.70;;;4.60;;
3527;SDS011;1778;47.966;7.854;2023-11-19T02:46:39;4.83;;;4.70;;
3527;SDS011;1778;47.966;7.854;2023-11-19T02:47:43;4.87;;;4.67;;
3527;SDS011;1778;47.966;7.854;2023-11-19T02:48:48;4.80;;;4.63;;
3527;SDS011;1778;47.966;7.854;2023-11-19T02:49:49;4.53;;;4.43;;
3527;SDS011;1778;47.966;7.854;2023-11-19T02:50:51;4.73;;;4.63;;
3527;SDS011;1778;47.966;7.854;2023-11-19T02:51:53;4.80;;;4.70;;
3527;SDS011;1778;47.966;7.854;2023-11-19T02:52:55;4.80;;;4.70;;
3527;SDS011;1778;47.966;7.854;2023-11-19T02:53:57;5.03;;;4.93;;
3527;SDS011;1778;47.966;7.854;2023-11-19T02:54:59;4.83;;;4.73;;
3527;SDS011;1778;47.966;7.854;2023-11-19T02:56:00;5.37;;;5.20;;
3527;SDS011;1778;47.966;7.854;2023-11-19T02:57:07;4.60;;;4.50;;
3527;SDS011;1778;47.966;7.854;2023-11-19T02:58:22;4.90;;;4.80;;
3527;SDS011;1778;47.966;7.854;2023-11-19T02:59:26;5.70;;;5.50;;
3527;SDS011;1778;47.966;7.854;2023-11-19T03:00:39;5.17;;;5.00;;
3527;SDS011;1778;47.966;7.854;2023-11-19T03:01:48;4.70;;;4.60;;
3527;SDS011;1778;47.966;7.854;2023-11-19T03:02:51;4.20;;;4.10;;
3527;SDS011;1778;47.966;7.854;2023-11-19T03:04:00;4.23;;;4.13;;
3527;SDS011;1778;47.966;7.854;2023-11-19T03:05:04;4.33;;;4.23;;
3527;SDS011;1778;47.966;7.854;2023-11-19T03:06:06;4.23;;;4.13;;
3527;SDS011;1778;47.966;7.854;2023-11-19T03:07:08;4.77;;;4.67;;
3527;SDS011;1778;47.966;7.854;2023-11-19T03:08:10;4.73;;;4.57;;
3527;SDS011;1778;47.966;7.854;2023-11-19T03:09:23;4.73;;;4.40;;
3527;SDS011;1778;47.966;7.854;2023-11-19T03:10:25;4.40;;;4.30;;
3527;SDS011;1778;47.966;7.854;2023-11-19T03:11:26;4.30;;;4.20;;
3527;SDS011;1778;47.966;7.854;2023-11-19T03:12:28;4.57;;;4.47;;
3527;SDS011;1778;47.966;7.854;2023-11-19T03:13:29;4.43;;;4.23;;
3527;SDS011;1778;47.966;7.854;2023-11-19T03:14:31;4.53;;;4.40;;
3527;SDS011;1778;47.966;7.854;2023-11-19T03:15:35;4.50;;;4.40;;
3527;SDS011;1778;47.966;7.854;2023-11-19T03:16:37;4.43;;;4.33;;
3527;SDS011;1778;47.966;7.854;2023-11-19T03:17:38;4.70;;;4.60;;
3527;SDS011;1778;47.966;7.854;2023-11-19T03:18:41;4.50;;;4.40;;
3527;SDS011;1778;47.966;7.854;2023-11-19T03:19:42;4.33;;;4.23;;
3527;SDS011;1778;47.966;7.854;2023-11-19T03:20:45;4.93;;;4.83;;
3527;SDS011;1778;47.966;7.854;2023-11-19T03:21:48;4.20;;;4.10;;
3527;SDS011;1778;47.966;7.854;2023-11-19T03:22:49;4.20;;;4.10;;
3527;SDS011;1778;47.966;7.854;2023-11-19T03:23:52;5.00;;;4.80;;
3527;SDS011;1778;47.966;7.854;2023-11-19T03:24:54;4.30;;;4.20;;
3527;SDS011;1778;47.966;7.854;2023-11-19T03:25:56;4.37;;;4.27;;
3527;SDS011;1778;47.966;7.854;2023-11-19T03:26:58;4.60;;;4.50;;
3527;SDS011;1778;47.966;7.854;2023-11-19T03:27:59;4.20;;;4.10;;
3527;SDS011;1778;47.966;7.854;2023-11-19T03:29:03;4.50;;;4.17;;
3527;SDS011;1778;47.966;7.854;2023-11-19T03:30:05;4.10;;;4.00;;
3527;SDS011;1778;47.966;7.854;2023-11-19T03:31:07;4.10;;;4.00;;
3527;SDS011;1778;47.966;7.854;2023-11-19T03:32:09;4.73;;;4.63;;
3527;SDS011;1778;47.966;7.854;2023-11-19T03:33:12;4.77;;;4.47;;
3527;SDS011;1778;47.966;7.854;2023-11-19T03:34:14;4.67;;;4.57;;
3527;SDS011;1778;47.966;7.854;2023-11-19T03:35:16;4.40;;;4.30;;
3527;SDS011;1778;47.966;7.854;2023-11-19T03:36:18;4.20;;;4.10;;
3527;SDS011;1778;47.966;7.854;2023-11-19T03:37:19;3.97;;;3.87;;
3527;SDS011;1778;47.966;7.854;2023-11-19T03:38:20;4.40;;;4.30;;
3527;SDS011;1778;47.966;7.854;2023-11-19T03:39:22;4.33;;;4.23;;
3527;SDS011;1778;47.966;7.854;2023-11-19T03:40:25;4.67;;;4.57;;
3527;SDS011;1778;47.966;7.854;2023-11-19T03:41:27;5.03;;;4.63;;
3527;SDS011;1778;47.966;7.854;2023-11-19T03:42:29;4.47;;;4.37;;
3527;SDS011;1778;47.966;7.854;2023-11-19T03:43:31;4.23;;;4.13;;
3527;SDS011;1778;47.966;7.854;2023-11-19T03:44:33;4.37;;;4.10;;
3527;SDS011;1778;47.966;7.854;2023-11-19T03:45:34;4.13;;;4.03;;
3527;SDS011;1778;47.966;7.854;2023-11-19T03:46:37;4.43;;;3.97;;
3527;SDS011;1778;47.966;7.854;2023-11-19T03:47:39;4.57;;;4.47;;
3527;SDS011;1778;47.966;7.854;2023-11-19T03:48:40;4.50;;;4.10;;
3527;SDS011;1778;47.966;7.854;2023-11-19T03:49:42;3.63;;;3.63;;
3527;SDS011;1778;47.966;7.854;2023-11-19T03:50:47;4.47;;;4.37;;
3527;SDS011;1778;47.966;7.854;2023-11-19T03:51:50;4.33;;;4.13;;
3527;SDS011;1778;47.966;7.854;2023-11-19T03:52:51;4.47;;;4.37;;
3527;SDS011;1778;47.966;7.854;2023-11-19T03:53:53;3.90;;;3.90;;
3527;SDS011;1778;47.966;7.854;2023-11-19T03:54:54;4.10;;;4.00;;
3527;SDS011;1778;47.966;7.854;2023-11-19T03:55:57;4.20;;;4.10;;
3527;SDS011;1778;47.966;7.854;2023-11-19T03:56:58;4.43;;;4.23;;
3527;SDS011;1778;47.966;7.854;2023-11-19T03:58:01;4.10;;;4.00;;
3527;SDS011;1778;47.966;7.854;2023-11-19T03:59:02;4.10;;;4.00;;
3527;SDS011;1778;47.966;7.854;2023-11-19T04:00:04;3.60;;;3.60;;
3527;SDS011;1778;47.966;7.854;2023-11-19T04:01:14;3.80;;;3.80;;
3527;SDS011;1778;47.966;7.854;2023-11-19T04:02:16;3.87;;;3.87;;
3527;SDS011;1778;47.966;7.854;2023-11-19T04:03:17;4.13;;;4.03;;
3527;SDS011;1778;47.966;7.854;2023-11-19T04:04:20;3.93;;;3.80;;
3527;SDS011;1778;47.966;7.854;2023-11-19T04:05:21;4.17;;;4.07;;
3527;SDS011;1778;47.966;7.854;2023-11-19T04:06:23;3.87;;;3.83;;
3527;SDS011;1778;47.966;7.854;2023-11-19T04:07:24;3.80;;;3.80;;
3527;SDS011;1778;47.966;7.854;2023-11-19T04:08:26;4.03;;;3.93;;
3527;SDS011;1778;47.966;7.854;2023-11-19T04:09:27;3.50;;;3.50;;
3527;SDS011;1778;47.966;7.854;2023-11-19T04:10:29;3.73;;;3.67;;
3527;SDS011;1778;47.966;7.854;2023-11-19T04:11:30;3.60;;;3.60;;
3527;SDS011;1778;47.966;7.854;2023-11-19T04:12:33;5.37;;;4.87;;
3527;SDS011;1778;47.966;7.854;2023-11-19T04:13:36;3.70;;;3.60;;
3527;SDS011;1778;47.966;7.854;2023-11-19T04:14:38;4.07;;;3.97;;
3527;SDS011;1778;47.966;7.854;2023-11-19T04:15:39;3.80;;;3.70;;
3527;SDS011;1778;47.966;7.854;2023-11-19T04:16:41;3.70;;;3.70;;
3527;SDS011;1778;47.966;7.854;2023-11-19T04:17:42;3.73;;;3.67;;
3527;SDS011;1778;47.966;7.854;2023-11-19T04:18:44;4.00;;;3.90;;
3527;SDS011;1778;47.966;7.854;2023-11-19T04:19:45;3.70;;;3.60;;
3527;SDS011;1778;47.966;7.854;2023-11-19T04:20:46;3.50;;;3.50;;
3527;SDS011;1778;47.966;7.854;2023-11-19T04:21:48;8.43;;;3.70;;
3527;SDS011;1778;47.966;7.854;2023-11-19T04:22:50;3.97;;;3.60;;
3527;SDS011;1778;47.966;7.854;2023-11-19T04:23:52;3.87;;;3.77;;
3527;SDS011;1778;47.966;7.854;2023-11-19T04:24:53;3.60;;;3.60;;
3527;SDS011;1778;47.966;7.854;2023-11-19T04:25:56;3.43;;;3.43;;
3527;SDS011;1778;47.966;7.854;2023-11-19T04:27:11;3.90;;;3.90;;
3527;SDS011;1778;47.966;7.854;2023-11-19T04:28:13;3.60;;;3.50;;
3527;SDS011;1778;47.966;7.854;2023-11-19T04:29:15;9.60;;;3.80;;
3527;SDS011;1778;47.966;7.854;2023-11-19T04:30:18;3.73;;;3.73;;
3527;SDS011;1778;47.966;7.854;2023-11-19T04:31:20;3.50;;;3.50;;
3527;SDS011;1778;47.966;7.854;2023-11-19T04:32:21;3.77;;;3.77;;
3527;SDS011;1778;47.966;7.854;2023-11-19T04:33:23;3.93;;;3.93;;
3527;SDS011;1778;47.966;7.854;2023-11-19T04:34:24;3.70;;;3.70;;
3527;SDS011;1778;47.966;7.854;2023-11-19T04:35:26;4.23;;;3.93;;
3527;SDS011;1778;47.966;7.854;2023-11-19T04:36:28;3.53;;;3.53;;
3527;SDS011;1778;47.966;7.854;2023-11-19T04:37:30;3.70;;;3.70;;
3527;SDS011;1778;47.966;7.854;2023-11-19T04:38:31;3.70;;;3.70;;
3527;SDS011;1778;47.966;7.854;2023-11-19T04:39:33;3.50;;;3.50;;
3527;SDS011;1778;47.966;7.854;2023-11-19T04:40:34;3.43;;;3.43;;
3527;SDS011;1778;47.966;7.854;2023-11-19T04:41:36;3.57;;;3.47;;
3527;SDS011;1778;47.966;7.854;2023-11-19T04:42:38;3.27;;;3.27;;
3527;SDS011;1778;47.966;7.854;2023-11-19T04:43:42;3.73;;;3.63;;
3527;SDS011;1778;47.966;7.854;2023-11-19T04:44:43;3.47;;;3.47;;
3527;SDS011;1778;47.966;7.854;2023-11-19T04:45:45;3.50;;;3.50;;
3527;SDS011;1778;47.966;7.854;2023-11-19T04:46:47;3.30;;;3.30;;
3527;SDS011;1778;47.966;7.854;2023-11-19T04:47:49;3.80;;;3.70;;
3527;SDS011;1778;47.966;7.854;2023-11-19T04:48:50;3.67;;;3.67;;
3527;SDS011;1778;47.966;7.854;2023-11-19T04:49:51;3.20;;;3.20;;
3527;SDS011;1778;47.966;7.854;2023-11-19T04:50:53;3.30;;;3.30;;
3527;SDS011;1778;47.966;7.854;2023-11-19T04:51:55;3.87;;;3.67;;
3527;SDS011;1778;47.966;7.854;2023-11-19T04:52:56;3.60;;;3.50;;
3527;SDS011;1778;47.966;7.854;2023-11-19T04:54:01;3.37;;;3.37;;
3527;SDS011;1778;47.966;7.854;2023-11-19T04:55:02;3.10;;;3.10;;
3527;SDS011;1778;47.966;7.854;2023-11-19T04:56:10;3.00;;;3.00;;
3527;SDS011;1778;47.966;7.854;2023-11-19T04:57:12;3.00;;;3.00;;
3527;SDS011;1778;47.966;7.854;2023-11-19T04:58:14;3.20;;;3.20;;
3527;SDS011;1778;47.966;7.854;2023-11-19T04:59:16;2.93;;;2.93;;
3527;SDS011;1778;47.966;7.854;2023-11-19T05:00:17;3.00;;;2.90;;
3527;SDS011;1778;47.966;7.854;2023-11-19T05:01:20;2.90;;;2.90;;
3527;SDS011;1778;47.966;7.854;2023-11-19T05:02:21;2.87;;;2.87;;
3527;SDS011;1778;47.966;7.854;2023-11-19T05:03:23;2.70;;;2.70;;
3527;SDS011;1778;47.966;7.854;2023-11-19T05:04:24;2.90;;;2.90;;
3527;SDS011;1778;47.966;7.854;2023-11-19T05:05:26;3.00;;;3.00;;
3527;SDS011;1778;47.966;7.854;2023-11-19T05:06:28;3.00;;;3.00;;
3527;SDS011;1778;47.966;7.854;2023-11-19T05:07:30;3.40;;;3.40;;
3527;SDS011;1778;47.966;7.854;2023-11-19T05:08:32;2.70;;;2.70;;
3527;SDS011;1778;47.966;7.854;2023-11-19T05:09:33;2.83;;;2.83;;
3527;SDS011;1778;47.966;7.854;2023-11-19T05:10:35;2.93;;;2.93;;
3527;SDS011;1778;47.966;7.854;2023-11-19T05:11:37;2.73;;;2.73;;
3527;SDS011;1778;47.966;7.854;2023-11-19T05:12:51;3.13;;;2.93;;
3527;SDS011;1778;47.966;7.854;2023-11-19T05:13:53;2.93;;;2.93;;
3527;SDS011;1778;47.966;7.854;2023-11-19T05:14:55;2.83;;;2.83;;
3527;SDS011;1778;47.966;7.854;2023-11-19T05:15:56;3.10;;;3.10;;
3527;SDS011;1778;47.966;7.854;2023-11-19T05:16:58;2.63;;;2.63;;
3527;SDS011;1778;47.966;7.854;2023-11-19T05:18:00;3.30;;;3.30;;
3527;SDS011;1778;47.966;7.854;2023-11-19T05:19:01;2.70;;;2.70;;
3527;SDS011;1778;47.966;7.854;2023-11-19T05:20:03;2.77;;;2.77;;
3527;SDS011;1778;47.966;7.854;2023-11-19T05:21:05;3.43;;;3.20;;
3527;SDS011;1778;47.966;7.854;2023-11-19T05:22:08;2.70;;;2.70;;
3527;SDS011;1778;47.966;7.854;2023-11-19T05:23:09;2.73;;;2.73;;
3527;SDS011;1778;47.966;7.854;2023-11-19T05:24:21;3.20;;;3.20;;
3527;SDS011;1778;47.966;7.854;2023-11-19T05:25:23;2.97;;;2.90;;
3527;SDS011;1778;47.966;7.854;2023-11-19T05:26:24;2.83;;;2.80;;
3527;SDS011;1778;47.966;7.854;2023-11-19T05:27:27;2.57;;;2.50;;
3527;SDS011;1778;47.966;7.854;2023-11-19T05:28:29;2.77;;;2.77;;
3527;SDS011;1778;47.966;7.854;2023-11-19T05:29:31;3.03;;;2.93;;
3527;SDS011;1778;47.966;7.854;2023-11-19T05:30:33;3.20;;;3.20;;
3527;SDS011;1778;47.966;7.854;2023-11-19T05:31:34;2.90;;;2.90;;
3527;SDS011;1778;47.966;7.854;2023-11-19T05:32:37;2.87;;;2.87;;
3527;SDS011;1778;47.966;7.854;2023-11-19T05:33:39;2.90;;;2.90;;
3527;SDS011;1778;47.966;7.854;2023-11-19T05:34:40;2.83;;;2.83;;
3527;SDS011;1778;47.966;7.854;2023-11-19T05:35:45;2.73;;;2.73;;
3527;SDS011;1778;47.966;7.854;2023-11-19T05:36:47;3.00;;;3.00;;
3527;SDS011;1778;47.966;7.854;2023-11-19T05:37:48;3.00;;;3.00;;
3527;SDS011;1778;47.966;7.854;2023-11-19T05:38:50;2.67;;;2.67;;
3527;SDS011;1778;47.966;7.854;2023-11-19T05:39:52;2.97;;;2.97;;
3527;SDS011;1778;47.966;7.854;2023-11-19T05:40:53;2.50;;;2.50;;
3527;SDS011;1778;47.966;7.854;2023-11-19T05:41:54;2.90;;;2.90;;
3527;SDS011;1778;47.966;7.854;2023-11-19T05:42:56;3.07;;;3.07;;
3527;SDS011;1778;47.966;7.854;2023-11-19T05:43:58;3.20;;;3.10;;
3527;SDS011;1778;47.966;7.854;2023-11-19T05:44:59;2.90;;;2.90;;
3527;SDS011;1778;47.966;7.854;2023-11-19T05:46:01;3.30;;;3.30;;
3527;SDS011;1778;47.966;7.854;2023-11-19T05:47:03;2.80;;;2.80;;
3527;SDS011;1778;47.966;7.854;2023-11-19T05:48:05;3.20;;;3.20;;
3527;SDS011;1778;47.966;7.854;2023-11-19T05:49:06;2.60;;;2.60;;
3527;SDS011;1778;47.966;7.854;2023-11-19T05:50:08;2.67;;;2.67;;
3527;SDS011;1778;47.966;7.854;2023-11-19T05:51:11;2.60;;;2.60;;
3527;SDS011;1778;47.966;7.854;2023-11-19T05:52:12;2.83;;;2.83;;
3527;SDS011;1778;47.966;7.854;2023-11-19T05:53:14;3.00;;;3.00;;
3527;SDS011;1778;47.966;7.854;2023-11-19T05:54:16;2.77;;;2.77;;
3527;SDS011;1778;47.966;7.854;2023-11-19T05:55:17;2.80;;;2.80;;
3527;SDS011;1778;47.966;7.854;2023-11-19T05:56:18;2.70;;;2.70;;
3527;SDS011;1778;47.966;7.854;2023-11-19T05:57:22;2.70;;;2.70;;
3527;SDS011;1778;47.966;7.854;2023-11-19T05:58:26;2.83;;;2.83;;
3527;SDS011;1778;47.966;7.854;2023-11-19T05:59:29;2.77;;;2.77;;
3527;SDS011;1778;47.966;7.854;2023-11-19T06:00:31;2.70;;;2.70;;
3527;SDS011;1778;47.966;7.854;2023-11-19T06:01:34;2.80;;;2.80;;
3527;SDS011;1778;47.966;7.854;2023-11-19T06:02:35;2.60;;;2.60;;
3527;SDS011;1778;47.966;7.854;2023-11-19T06:03:39;2.70;;;2.70;;
3527;SDS011;1778;47.966;7.854;2023-11-19T06:04:40;2.73;;;2.73;;
3527;SDS011;1778;47.966;7.854;2023-11-19T06:05:45;2.70;;;2.70;;
3527;SDS011;1778;47.966;7.854;2023-11-19T06:06:47;2.53;;;2.53;;
3527;SDS011;1778;47.966;7.854;2023-11-19T06:07:48;2.77;;;2.77;;
3527;SDS011;1778;47.966;7.854;2023-11-19T06:08:52;2.67;;;2.67;;
3527;SDS011;1778;47.966;7.854;2023-11-19T06:09:53;2.50;;;2.50;;
3527;SDS011;1778;47.966;7.854;2023-11-19T06:10:55;2.80;;;2.80;;
3527;SDS011;1778;47.966;7.854;2023-11-19T06:11:57;2.70;;;2.70;;
3527;SDS011;1778;47.966;7.854;2023-11-19T06:12:59;2.53;;;2.53;;
3527;SDS011;1778;47.966;7.854;2023-11-19T06:14:00;2.90;;;2.90;;
3527;SDS011;1778;47.966;7.854;2023-11-19T06:15:06;2.67;;;2.67;;
3527;SDS011;1778;47.966;7.854;2023-11-19T06:17:26;2.57;;;2.57;;
3527;SDS011;1778;47.966;7.854;2023-11-19T06:18:28;2.50;;;2.50;;
3527;SDS011;1778;47.966;7.854;2023-11-19T06:19:29;2.80;;;2.80;;
3527;SDS011;1778;47.966;7.854;2023-11-19T06:20:32;2.80;;;2.80;;
3527;SDS011;1778;47.966;7.854;2023-11-19T06:21:37;3.07;;;2.97;;
3527;SDS011;1778;47.966;7.854;2023-11-19T06:22:38;2.67;;;2.67;;
3527;SDS011;1778;47.966;7.854;2023-11-19T06:23:40;2.67;;;2.67;;
3527;SDS011;1778;47.966;7.854;2023-11-19T06:24:41;2.60;;;2.60;;
3527;SDS011;1778;47.966;7.854;2023-11-19T06:25:43;2.87;;;2.77;;
3527;SDS011;1778;47.966;7.854;2023-11-19T06:26:44;2.63;;;2.63;;
3527;SDS011;1778;47.966;7.854;2023-11-19T06:27:46;2.80;;;2.80;;
3527;SDS011;1778;47.966;7.854;2023-11-19T06:28:47;2.90;;;2.90;;
3527;SDS011;1778;47.966;7.854;2023-11-19T06:29:49;2.50;;;2.50;;
3527;SDS011;1778;47.966;7.854;2023-11-19T06:30:50;2.70;;;2.70;;
3527;SDS011;1778;47.966;7.854;2023-11-19T06:31:52;2.60;;;2.60;;